Time,TemperatureF,DewpointF,PressureIn,WindDirection,WindDirectionDegrees,WindSpeedMPH,WindSpeedGustMPH,Humidity,HourlyPrecipIn,Conditions,Clouds,dailyrainin,SolarRadiationWatts/m^2,SoftwareType,DateUTC
2013-05-16 00:00:00,68.4,46.8,29.86,West,280,3.0,12.0,46,0.00,CLR,CLR,0.00,0.0,WeatherDisplay:10.37,2013-05-16 05:00:00,
2013-05-16 00:05:00,68.1,46.5,29.86,West,276,7.0,16.0,46,0.00,CLR,CLR,0.00,0.0,WeatherDisplay:10.37,2013-05-16 05:05:00,
2013-05-16 00:10:00,67.7,46.2,29.87,West,278,7.0,12.0,46,0.00,CLR,CLR,0.00,0.0,WeatherDisplay:10.37,2013-05-16 05:10:00,
2013-05-16 00:15:00,67.4,46.4,29.87,WNW,286,6.0,8.0,47,0.00,CLR,CLR,0.00,0.0,WeatherDisplay:10.37,2013-05-16 05:15:00,
2013-05-16 00:20:00,67.1,46.1,29.87,WNW,286,5.0,8.0,47,0.00,CLR,CLR,0.00,0.0,WeatherDisplay:10.37,2013-05-16 05:20:00,
2013-05-16 00:25:00,66.7,46.4,29.87,WNW,297,2.0,6.0,48,0.00,CLR,CLR,0.00,0.0,WeatherDisplay:10.37,2013-05-16 05:25:00,
2013-05-16 00:30:00,66.4,46.1,29.87,WNW,300,3.0,5.0,48,0.00,CLR,CLR,0.00,0.0,WeatherDisplay:10.37,2013-05-16 05:30:00,
2013-05-16 00:35:00,66.2,46.5,29.88,WNW,291,2.0,6.0,49,0.00,CLR,CLR,0.00,0.0,WeatherDisplay:10.37,2013-05-16 05:35:00,
2013-05-16 00:40:00,66.1,46.4,29.88,WNW,292,5.0,7.0,49,0.00,CLR,CLR,0.00,0.0,WeatherDisplay:10.37,2013-05-16 05:40:00,
2013-05-16 00:45:00,66.0,46.3,29.88,WNW,298,1.0,8.0,49,0.00,CLR,CLR,0.00,0.0,WeatherDisplay:10.37,2013-05-16 05:45:00,
2013-05-16 00:50:00,65.5,46.4,29.88,NW,307,3.0,5.0,50,0.00,CLR,CLR,0.00,0.0,WeatherDisplay:10.37,2013-05-16 05:50:00,
2013-05-16 00:55:00,65.1,46.5,29.88,WNW,301,2.0,7.0,51,0.00,CLR,CLR,0.00,0.0,WeatherDisplay:10.37,2013-05-16 05:55:00,
2013-05-16 01:00:00,64.7,46.2,29.88,WNW,291,2.0,7.0,51,0.00,CLR,CLR,0.00,0.0,WeatherDisplay:10.37,2013-05-16 06:00:00,
2013-05-16 01:05:00,64.5,46.5,29.88,WNW,286,1.0,7.0,52,0.00,CLR,CLR,0.00,0.0,WeatherDisplay:10.37,2013-05-16 06:05:00,
2013-05-16 01:10:00,64.5,46.5,29.88,West,278,0.0,3.0,52,0.00,CLR,CLR,0.00,0.0,WeatherDisplay:10.37,2013-05-16 06:10:00,
2013-05-16 01:15:00,64.2,46.2,29.89,West,276,1.0,2.0,52,0.00,CLR,CLR,0.00,0.0,WeatherDisplay:10.37,2013-05-16 06:15:00,
2013-05-16 01:20:00,64.0,46.5,29.89,WNW,289,0.0,2.0,53,0.00,CLR,CLR,0.00,0.0,WeatherDisplay:10.37,2013-05-16 06:20:00,
2013-05-16 01:25:00,63.9,46.4,29.89,NW,307,2.0,4.0,53,0.00,CLR,CLR,0.00,0.0,WeatherDisplay:10.37,2013-05-16 06:25:00,
2013-05-16 01:30:00,63.7,46.3,29.89,NW,314,1.0,3.0,53,0.00,CLR,CLR,0.00,0.0,WeatherDisplay:10.37,2013-05-16 06:30:00,
2013-05-16 01:35:00,63.5,46.1,29.89,NW,319,3.0,7.0,53,0.00,CLR,CLR,0.00,0.0,WeatherDisplay:10.37,2013-05-16 06:35:00,
2013-05-16 01:40:00,63.3,46.4,29.89,NW,325,1.0,6.0,54,0.00,CLR,CLR,0.00,0.0,WeatherDisplay:10.37,2013-05-16 06:40:00,
2013-05-16 01:45:00,63.1,46.2,29.89,NNW,328,1.0,3.0,54,0.00,CLR,CLR,0.00,0.0,WeatherDisplay:10.37,2013-05-16 06:45:00,
2013-05-16 01:50:00,62.8,46.4,29.89,NW,325,0.0,3.0,55,0.00,CLR,CLR,0.00,0.0,WeatherDisplay:10.37,2013-05-16 06:50:00,
2013-05-16 01:55:00,62.6,46.2,29.89,NW,325,0.0,2.0,55,0.00,CLR,CLR,0.00,0.0,WeatherDisplay:10.37,2013-05-16 06:55:00,
2013-05-16 02:00:00,62.3,46.4,29.89,NNW,328,0.0,3.0,56,0.00,CLR,CLR,0.00,0.0,WeatherDisplay:10.37,2013-05-16 07:00:00,
2013-05-16 02:05:00,61.9,46.0,29.90,NNW,330,0.0,2.0,56,0.00,CLR,CLR,0.00,0.0,WeatherDisplay:10.37,2013-05-16 07:05:00,
2013-05-16 02:10:00,61.4,46.0,29.90,NNW,329,0.0,2.0,57,0.00,CLR,CLR,0.00,0.0,WeatherDisplay:10.37,2013-05-16 07:10:00,
2013-05-16 02:15:00,61.4,46.5,29.90,NNW,329,0.0,1.0,58,0.00,CLR,CLR,0.00,0.0,WeatherDisplay:10.37,2013-05-16 07:15:00,
2013-05-16 02:20:00,61.1,46.2,29.90,NNW,329,0.0,2.0,58,0.00,CLR,CLR,0.00,0.0,WeatherDisplay:10.37,2013-05-16 07:20:00,
2013-05-16 02:25:00,60.7,46.3,29.90,NNW,329,0.0,16.0,59,0.00,CLR,CLR,0.00,0.0,WeatherDisplay:10.37,2013-05-16 07:25:00,
2013-05-16 02:30:00,60.4,46.0,29.90,NNW,329,0.0,1.0,59,0.00,CLR,CLR,0.00,0.0,WeatherDisplay:10.37,2013-05-16 07:30:00,
2013-05-16 02:35:00,60.0,46.1,29.90,NNW,329,1.0,2.0,60,0.00,CLR,CLR,0.00,0.0,WeatherDisplay:10.37,2013-05-16 07:35:00,
2013-05-16 02:40:00,60.1,46.2,29.90,NNW,329,1.0,3.0,60,0.00,CLR,CLR,0.00,0.0,WeatherDisplay:10.37,2013-05-16 07:40:00,
2013-05-16 02:45:00,60.3,45.9,29.90,NNW,345,1.0,4.0,59,0.00,CLR,CLR,0.00,0.0,WeatherDisplay:10.37,2013-05-16 07:45:00,
2013-05-16 02:50:00,60.4,45.5,29.90,North,358,0.0,3.0,58,0.00,CLR,CLR,0.00,0.0,WeatherDisplay:10.37,2013-05-16 07:50:00,
2013-05-16 02:55:00,59.9,46.0,29.90,North,360,0.0,2.0,60,0.00,CLR,CLR,0.00,0.0,WeatherDisplay:10.37,2013-05-16 07:55:00,
2013-05-16 03:00:00,60.0,45.2,29.90,North,1,1.0,4.0,58,0.00,CLR,CLR,0.00,0.0,WeatherDisplay:10.37,2013-05-16 08:00:00,
2013-05-16 03:05:00,60.6,44.8,29.90,North,5,1.0,4.0,56,0.00,CLR,CLR,0.00,0.0,WeatherDisplay:10.37,2013-05-16 08:05:00,
2013-05-16 03:10:00,60.7,44.4,29.91,North,2,1.0,4.0,55,0.00,CLR,CLR,0.00,0.0,WeatherDisplay:10.37,2013-05-16 08:10:00,
2013-05-16 03:15:00,60.7,44.4,29.90,North,1,0.0,3.0,55,0.00,CLR,CLR,0.00,0.0,WeatherDisplay:10.37,2013-05-16 08:15:00,
2013-05-16 03:20:00,60.5,43.8,29.91,North,5,1.0,3.0,54,0.00,CLR,CLR,0.00,0.0,WeatherDisplay:10.37,2013-05-16 08:20:00,
2013-05-16 03:25:00,60.3,44.0,29.91,North,5,1.0,3.0,55,0.00,CLR,CLR,0.00,0.0,WeatherDisplay:10.37,2013-05-16 08:25:00,
2013-05-16 03:30:00,60.1,44.3,29.91,North,6,0.0,3.0,56,0.00,CLR,CLR,0.00,0.0,WeatherDisplay:10.37,2013-05-16 08:30:00,
2013-05-16 03:35:00,59.5,43.8,29.91,North,9,1.0,2.0,56,0.00,CLR,CLR,0.00,0.0,WeatherDisplay:10.37,2013-05-16 08:35:00,
2013-05-16 03:40:00,59.4,44.2,29.91,North,7,1.0,3.0,57,0.00,CLR,CLR,0.00,0.0,WeatherDisplay:10.37,2013-05-16 08:40:00,
2013-05-16 03:45:00,59.5,43.3,29.91,North,7,1.0,3.0,55,0.00,CLR,CLR,0.00,0.0,WeatherDisplay:10.37,2013-05-16 08:45:00,
2013-05-16 03:50:00,59.5,43.3,29.91,North,5,1.0,3.0,55,0.00,CLR,CLR,0.00,0.0,WeatherDisplay:10.37,2013-05-16 08:50:00,
2013-05-16 03:55:00,59.2,43.1,29.91,North,4,0.0,2.0,55,0.00,CLR,CLR,0.00,0.0,WeatherDisplay:10.37,2013-05-16 08:55:00,
2013-05-16 04:00:00,58.4,43.7,29.92,North,5,0.0,1.0,58,0.00,CLR,CLR,0.00,0.0,WeatherDisplay:10.37,2013-05-16 09:00:00,
2013-05-16 04:05:00,58.3,44.0,29.92,North,5,0.0,1.0,59,0.00,CLR,CLR,0.00,0.0,WeatherDisplay:10.37,2013-05-16 09:05:00,
2013-05-16 04:10:00,58.2,44.0,29.92,North,5,0.0,1.0,59,0.00,CLR,CLR,0.00,0.0,WeatherDisplay:10.37,2013-05-16 09:10:00,
2013-05-16 04:15:00,58.1,43.9,29.92,North,5,1.0,2.0,59,0.00,CLR,CLR,0.00,0.0,WeatherDisplay:10.37,2013-05-16 09:15:00,
2013-05-16 04:20:00,58.1,43.0,29.92,North,5,0.0,2.0,57,0.00,CLR,CLR,0.00,0.0,WeatherDisplay:10.37,2013-05-16 09:20:00,
2013-05-16 04:25:00,58.4,42.8,29.92,North,5,1.0,3.0,56,0.00,CLR,CLR,0.00,0.0,WeatherDisplay:10.37,2013-05-16 09:25:00,
2013-05-16 04:30:00,58.1,42.5,29.92,North,5,0.0,2.0,56,0.00,CLR,CLR,0.00,0.0,WeatherDisplay:10.37,2013-05-16 09:30:00,
2013-05-16 04:35:00,57.9,43.2,29.93,North,5,0.0,2.0,58,0.00,CLR,CLR,0.00,0.0,WeatherDisplay:10.37,2013-05-16 09:35:00,
2013-05-16 04:40:00,57.4,42.7,29.92,North,5,1.0,3.0,58,0.00,CLR,CLR,0.00,0.0,WeatherDisplay:10.37,2013-05-16 09:40:00,
2013-05-16 04:45:00,57.2,42.5,29.92,North,3,1.0,4.0,58,0.00,CLR,CLR,0.00,0.0,WeatherDisplay:10.37,2013-05-16 09:45:00,
2013-05-16 04:50:00,57.5,42.4,29.92,North,357,2.0,4.0,57,0.00,CLR,CLR,0.00,0.0,WeatherDisplay:10.37,2013-05-16 09:50:00,
2013-05-16 04:55:00,57.5,41.9,29.92,North,357,2.0,5.0,56,0.00,CLR,CLR,0.00,0.0,WeatherDisplay:10.37,2013-05-16 09:55:00,
2013-05-16 05:00:00,57.6,41.5,29.92,North,357,0.0,5.0,55,0.00,CLR,CLR,0.00,0.0,WeatherDisplay:10.37,2013-05-16 10:00:00,
2013-05-16 05:05:00,57.5,41.9,29.92,North,351,1.0,4.0,56,0.00,CLR,CLR,0.00,0.0,WeatherDisplay:10.37,2013-05-16 10:05:00,
2013-05-16 05:10:00,57.2,41.7,29.93,North,351,0.0,3.0,56,0.00,CLR,CLR,0.00,0.0,WeatherDisplay:10.37,2013-05-16 10:10:00,
2013-05-16 05:15:00,56.9,41.4,29.93,North,355,1.0,3.0,56,0.00,CLR,CLR,0.00,0.0,WeatherDisplay:10.37,2013-05-16 10:15:00,
2013-05-16 05:21:00,56.8,41.3,29.93,North,360,0.2,2.3,56,0.00,CLR,,0.00,0.0,WeatherDisplay:10.37,2013-05-16 10:21:00,
2013-05-16 05:26:00,56.7,41.6,29.93,NNW,335,1.4,3.5,57,0.00,CLR,,0.00,0.0,WeatherDisplay:10.37,2013-05-16 10:26:00,
2013-05-16 05:31:00,56.6,41.5,29.93,North,5,0.9,3.5,57,0.00,CLR,,0.00,0.0,WeatherDisplay:10.37,2013-05-16 10:31:00,
2013-05-16 05:36:00,56.6,41.5,29.93,North,5,0.7,2.3,57,0.00,CLR,,0.00,0.0,WeatherDisplay:10.37,2013-05-16 10:36:00,
2013-05-16 05:41:00,56.5,41.4,29.94,NNW,343,1.2,3.5,57,0.00,CLR,,0.00,0.0,WeatherDisplay:10.37,2013-05-16 10:41:00,
2013-05-16 05:46:00,56.4,40.9,29.94,NNW,346,1.0,3.5,56,0.00,CLR,,0.00,5.0,WeatherDisplay:10.37,2013-05-16 10:46:00,
2013-05-16 05:51:00,56.4,41.3,29.94,North,355,0.1,1.2,57,0.00,CLR,,0.00,5.0,WeatherDisplay:10.37,2013-05-16 10:51:00,
2013-05-16 05:56:00,56.2,41.2,29.94,NW,325,1.3,3.5,57,0.00,CLR,,0.00,9.0,WeatherDisplay:10.37,2013-05-16 10:56:00,
2013-05-16 06:01:00,56.0,41.4,29.94,NW,325,1.1,2.3,58,0.00,CLR,,0.00,11.0,WeatherDisplay:10.37,2013-05-16 11:01:00,
2013-05-16 06:06:00,55.8,41.2,29.94,NW,325,0.2,2.3,58,0.00,CLR,,0.00,12.0,WeatherDisplay:10.37,2013-05-16 11:06:00,
2013-05-16 06:11:00,55.7,41.1,29.94,NW,326,0.2,1.2,58,0.00,CLR,,0.00,14.0,WeatherDisplay:10.37,2013-05-16 11:11:00,
2013-05-16 06:16:00,55.7,41.1,29.95,NW,326,0.0,0.0,58,0.00,CLR,,0.00,16.0,WeatherDisplay:10.37,2013-05-16 11:16:00,
2013-05-16 06:21:00,55.7,41.1,29.94,NNW,330,0.0,0.0,58,0.00,CLR,,0.00,19.0,WeatherDisplay:10.37,2013-05-16 11:21:00,
2013-05-16 06:26:00,55.6,41.0,29.94,NNW,330,1.0,3.0,58,0.00,CLR,,0.00,21.0,WeatherDisplay:10.37,2013-05-16 11:26:00,
2013-05-16 06:31:00,55.7,41.1,29.94,NNW,330,0.1,2.3,58,0.00,CLR,,0.00,23.0,WeatherDisplay:10.37,2013-05-16 11:31:00,
2013-05-16 06:36:00,55.7,41.1,29.95,NNW,331,0.0,0.0,58,0.00,CLR,,0.00,25.0,WeatherDisplay:10.37,2013-05-16 11:36:00,
2013-05-16 06:41:00,56.0,41.4,29.95,NNW,331,0.1,2.3,58,0.00,CLR,,0.00,33.0,WeatherDisplay:10.37,2013-05-16 11:41:00,
2013-05-16 06:46:00,56.0,41.4,29.95,NNW,336,0.3,2.3,58,0.00,CLR,,0.00,35.0,WeatherDisplay:10.37,2013-05-16 11:46:00,
2013-05-16 06:51:00,56.2,41.6,29.95,NNW,329,1.9,3.5,58,0.00,CLR,,0.00,56.0,WeatherDisplay:10.37,2013-05-16 11:51:00,
2013-05-16 06:56:00,56.4,41.8,29.95,NNW,329,0.3,1.0,58,0.00,CLR,,0.00,53.0,WeatherDisplay:10.37,2013-05-16 11:56:00,
2013-05-16 07:01:00,56.5,41.9,29.95,NNW,329,0.1,1.2,58,0.00,CLR,,0.00,88.0,WeatherDisplay:10.37,2013-05-16 12:01:00,
2013-05-16 07:06:00,57.3,42.2,29.95,NNW,333,1.0,3.0,57,0.00,CLR,,0.00,134.0,WeatherDisplay:10.37,2013-05-16 12:06:00,
2013-05-16 07:11:00,57.9,42.3,29.95,NNW,332,0.2,1.2,56,0.00,CLR,,0.00,148.0,WeatherDisplay:10.37,2013-05-16 12:11:00,
2013-05-16 07:16:00,58.5,42.4,29.96,NNW,342,0.9,2.3,55,0.00,CLR,,0.00,165.0,WeatherDisplay:10.37,2013-05-16 12:16:00,
2013-05-16 07:21:00,58.8,42.2,29.96,NNW,340,1.2,3.0,54,0.00,CLR,,0.00,185.0,WeatherDisplay:10.37,2013-05-16 12:21:00,
2013-05-16 07:26:00,59.3,42.6,29.96,NNW,346,0.5,2.3,54,0.00,CLR,,0.00,199.0,WeatherDisplay:10.37,2013-05-16 12:26:00,
2013-05-16 07:31:00,59.7,42.5,29.96,NE,38,0.5,3.5,53,0.00,CLR,,0.00,213.0,WeatherDisplay:10.37,2013-05-16 12:31:00,
2013-05-16 07:36:00,60.3,43.1,29.96,NNW,348,1.1,2.3,53,0.00,CLR,,0.00,230.0,WeatherDisplay:10.37,2013-05-16 12:36:00,
2013-05-16 07:41:00,60.7,43.0,29.97,NNE,14,0.9,3.5,52,0.00,CLR,,0.00,243.0,WeatherDisplay:10.37,2013-05-16 12:41:00,
2013-05-16 07:46:00,61.2,42.9,29.97,NNE,23,1.0,3.5,51,0.00,CLR,,0.00,258.0,WeatherDisplay:10.37,2013-05-16 12:46:00,
2013-05-16 07:51:00,61.7,43.4,29.96,NE,39,0.9,3.5,51,0.00,CLR,,0.00,272.0,WeatherDisplay:10.37,2013-05-16 12:51:00,
2013-05-16 07:56:00,62.2,42.8,29.96,ENE,74,3.0,9.2,49,0.00,CLR,,0.00,288.0,WeatherDisplay:10.37,2013-05-16 12:56:00,
2013-05-16 08:01:00,62.5,43.1,29.97,East,87,0.1,1.2,49,0.00,CLR,,0.00,302.0,WeatherDisplay:10.37,2013-05-16 13:01:00,
2013-05-16 08:06:00,63.6,43.0,29.97,North,355,0.8,3.5,47,0.00,CLR,,0.00,320.0,WeatherDisplay:10.37,2013-05-16 13:06:00,
2013-05-16 08:11:00,63.9,42.7,29.97,West,277,2.8,6.0,46,0.00,CLR,,0.00,334.0,WeatherDisplay:10.37,2013-05-16 13:11:00,
2013-05-16 08:16:00,64.0,42.8,29.97,ENE,58,1.6,8.1,46,0.00,CLR,,0.00,350.0,WeatherDisplay:10.37,2013-05-16 13:16:00,
2013-05-16 08:21:00,64.3,43.1,29.97,ENE,63,5.0,8.1,46,0.00,CLR,,0.00,362.0,WeatherDisplay:10.37,2013-05-16 13:21:00,
2013-05-16 08:26:00,64.5,43.3,29.97,NE,50,1.2,4.0,46,0.00,CLR,,0.00,380.0,WeatherDisplay:10.37,2013-05-16 13:26:00,
2013-05-16 08:31:00,65.3,43.4,29.98,NE,34,3.5,6.0,45,0.00,CLR,,0.00,397.0,WeatherDisplay:10.37,2013-05-16 13:31:00,
2013-05-16 08:36:00,65.4,44.1,29.98,NE,45,1.0,3.0,46,0.00,CLR,,0.00,411.0,WeatherDisplay:10.37,2013-05-16 13:36:00,
2013-05-16 08:41:00,65.7,43.8,29.98,NNE,26,3.5,5.0,45,0.00,CLR,,0.00,425.0,WeatherDisplay:10.37,2013-05-16 13:41:00,
2013-05-16 08:46:00,66.2,43.6,29.98,NE,51,2.8,5.8,44,0.00,CLR,,0.00,450.0,WeatherDisplay:10.37,2013-05-16 13:46:00,
2013-05-16 08:51:00,66.7,44.7,29.98,SE,139,0.3,1.2,45,0.00,CLR,,0.00,473.0,WeatherDisplay:10.37,2013-05-16 13:51:00,
2013-05-16 08:56:00,67.5,45.4,29.98,ENE,77,0.7,3.5,45,0.00,CLR,,0.00,487.0,WeatherDisplay:10.37,2013-05-16 13:56:00,
2013-05-16 09:01:00,68.1,44.7,29.98,NE,55,3.7,7.0,43,0.00,CLR,,0.00,492.0,WeatherDisplay:10.37,2013-05-16 14:01:00,
2013-05-16 09:06:00,68.2,44.8,29.98,NE,42,1.1,3.5,43,0.00,CLR,,0.00,504.0,WeatherDisplay:10.37,2013-05-16 14:06:00,
2013-05-16 09:11:00,68.4,45.0,29.98,NE,44,3.0,5.0,43,0.00,CLR,,0.00,517.0,WeatherDisplay:10.37,2013-05-16 14:11:00,
2013-05-16 09:16:00,69.1,45.0,29.98,ENE,65,2.9,7.0,42,0.00,CLR,,0.00,552.0,WeatherDisplay:10.37,2013-05-16 14:16:00,
2013-05-16 09:21:00,69.4,44.7,29.98,NE,44,3.2,5.0,41,0.00,CLR,,0.00,568.0,WeatherDisplay:10.37,2013-05-16 14:21:00,
2013-05-16 09:26:00,69.7,44.9,29.98,East,88,1.3,3.5,41,0.00,CLR,,0.00,439.0,WeatherDisplay:10.37,2013-05-16 14:26:00,
2013-05-16 09:31:00,70.2,45.4,29.98,SSE,164,0.7,3.5,41,0.00,CLR,,0.00,582.0,WeatherDisplay:10.37,2013-05-16 14:31:00,
2013-05-16 09:36:00,70.8,45.3,29.98,NNE,24,4.0,8.1,40,0.00,CLR,,0.00,601.0,WeatherDisplay:10.37,2013-05-16 14:36:00,
2013-05-16 09:41:00,71.0,44.1,29.98,ENE,77,3.8,7.0,38,0.00,CLR,,0.00,250.0,WeatherDisplay:10.37,2013-05-16 14:41:00,
2013-05-16 09:46:00,71.3,43.7,29.98,ENE,59,6.2,10.4,37,0.00,CLR,,0.00,640.0,WeatherDisplay:10.37,2013-05-16 14:46:00,
2013-05-16 09:51:00,71.5,43.8,29.98,SSE,157,2.4,4.0,37,0.00,CLR,,0.00,599.0,WeatherDisplay:10.37,2013-05-16 14:51:00,
2013-05-16 09:56:00,72.0,44.3,29.98,NNW,346,1.6,4.0,37,0.00,CLR,,0.00,645.0,WeatherDisplay:10.37,2013-05-16 14:56:00,
2013-05-16 10:01:00,72.3,44.6,29.98,SSE,152,3.7,7.0,37,0.00,CLR,,0.00,652.0,WeatherDisplay:10.37,2013-05-16 15:01:00,
2013-05-16 10:06:00,72.5,44.0,29.98,East,92,2.9,6.0,36,0.00,CLR,,0.00,673.0,WeatherDisplay:10.37,2013-05-16 15:06:00,
2013-05-16 10:11:00,73.1,43.8,29.97,SSW,198,4.5,8.1,35,0.00,CLR,,0.00,645.0,WeatherDisplay:10.37,2013-05-16 15:11:00,
2013-05-16 10:16:00,73.3,44.0,29.97,North,360,1.5,4.6,35,0.00,CLR,,0.00,628.0,WeatherDisplay:10.37,2013-05-16 15:16:00,
2013-05-16 10:21:00,73.7,43.6,29.98,NE,38,4.6,9.2,34,0.00,CLR,,0.00,754.0,WeatherDisplay:10.37,2013-05-16 15:21:00,
2013-05-16 10:26:00,74.4,44.2,29.97,East,88,4.0,8.0,34,0.00,CLR,,0.00,744.0,WeatherDisplay:10.37,2013-05-16 15:26:00,
2013-05-16 10:31:00,74.2,44.0,29.98,ENE,67,1.5,6.9,34,0.00,CLR,,0.00,708.0,WeatherDisplay:10.37,2013-05-16 15:31:00,
2013-05-16 10:36:00,74.4,44.2,29.97,East,94,3.0,4.0,34,0.00,CLR,,0.00,728.0,WeatherDisplay:10.37,2013-05-16 15:36:00,
2013-05-16 10:41:00,74.9,43.8,29.97,South,171,1.4,4.0,33,0.00,CLR,,0.00,735.0,WeatherDisplay:10.37,2013-05-16 15:41:00,
2013-05-16 10:46:00,75.5,44.4,29.97,NE,54,4.0,7.0,33,0.00,CLR,,0.00,733.0,WeatherDisplay:10.37,2013-05-16 15:46:00,
2013-05-16 10:51:00,75.7,43.7,29.97,SSE,157,1.3,3.5,32,0.00,CLR,,0.00,742.0,WeatherDisplay:10.37,2013-05-16 15:51:00,
2013-05-16 10:56:00,75.9,44.7,29.97,East,84,3.6,7.0,33,0.00,CLR,,0.00,752.0,WeatherDisplay:10.37,2013-05-16 15:56:00,
2013-05-16 11:01:00,76.5,44.4,29.97,NNW,329,2.1,5.0,32,0.00,CLR,,0.00,761.0,WeatherDisplay:10.37,2013-05-16 16:01:00,
2013-05-16 11:06:00,76.8,44.7,29.97,NNE,33,4.5,7.0,32,0.00,CLR,,0.00,770.0,WeatherDisplay:10.37,2013-05-16 16:06:00,
2013-05-16 11:11:00,76.4,44.4,29.97,East,94,3.8,6.0,32,0.00,CLR,,0.00,780.0,WeatherDisplay:10.37,2013-05-16 16:11:00,
2013-05-16 11:16:00,76.2,43.3,29.97,SSW,199,3.0,7.0,31,0.00,CLR,,0.00,788.0,WeatherDisplay:10.37,2013-05-16 16:16:00,
2013-05-16 11:21:00,76.7,44.6,29.97,South,169,3.0,5.0,32,0.00,CLR,,0.00,798.0,WeatherDisplay:10.37,2013-05-16 16:21:00,
2013-05-16 11:26:00,76.7,42.9,29.97,NE,38,3.2,10.0,30,0.00,CLR,,0.00,803.0,WeatherDisplay:10.37,2013-05-16 16:26:00,
2013-05-16 11:31:00,76.8,43.9,29.96,East,87,4.2,6.0,31,0.00,CLR,,0.00,810.0,WeatherDisplay:10.37,2013-05-16 16:31:00,
2013-05-16 11:36:00,76.7,43.8,29.96,NE,49,1.4,8.1,31,0.00,CLR,,0.00,821.0,WeatherDisplay:10.37,2013-05-16 16:36:00,
2013-05-16 11:41:00,77.4,43.5,29.96,NNE,29,5.0,9.0,30,0.00,CLR,,0.00,828.0,WeatherDisplay:10.37,2013-05-16 16:41:00,
2013-05-16 11:46:00,78.0,43.2,29.96,North,5,3.8,8.1,29,0.00,CLR,,0.00,833.0,WeatherDisplay:10.37,2013-05-16 16:46:00,
2013-05-16 11:51:00,78.2,43.3,29.96,East,100,3.0,7.0,29,0.00,CLR,,0.00,840.0,WeatherDisplay:10.37,2013-05-16 16:51:00,
2013-05-16 11:56:00,78.5,42.7,29.95,NNE,22,3.8,8.1,28,0.00,CLR,,0.00,851.0,WeatherDisplay:10.37,2013-05-16 16:56:00,
2013-05-16 12:01:00,78.6,41.8,29.95,ESE,107,3.4,7.0,27,0.00,CLR,,0.00,858.0,WeatherDisplay:10.37,2013-05-16 17:01:00,
2013-05-16 12:06:00,78.2,43.3,29.95,South,183,4.5,10.4,29,0.00,CLR,,0.00,858.0,WeatherDisplay:10.37,2013-05-16 17:06:00,
2013-05-16 12:11:00,78.7,42.8,29.95,NNW,345,2.7,5.0,28,0.00,CLR,,0.00,851.0,WeatherDisplay:10.37,2013-05-16 17:11:00,
2013-05-16 12:16:00,78.7,42.8,29.95,NNW,344,2.0,4.6,28,0.00,CLR,,0.00,800.0,WeatherDisplay:10.37,2013-05-16 17:16:00,
2013-05-16 12:21:00,79.0,42.2,29.95,South,177,6.6,14.0,27,0.00,CLR,,0.00,833.0,WeatherDisplay:10.37,2013-05-16 17:21:00,
2013-05-16 12:26:00,79.0,43.1,29.95,NNE,33,4.1,10.4,28,0.00,CLR,,0.00,865.0,WeatherDisplay:10.37,2013-05-16 17:26:00,
2013-05-16 12:31:00,79.8,42.8,29.94,SSE,168,2.8,5.0,27,0.00,CLR,,0.00,824.0,WeatherDisplay:10.37,2013-05-16 17:31:00,
2013-05-16 12:36:00,80.1,44.0,29.94,ESE,102,4.4,7.0,28,0.00,CLR,,0.00,904.0,WeatherDisplay:10.37,2013-05-16 17:36:00,
2013-05-16 12:41:00,79.9,41.9,29.94,NE,35,3.4,5.0,26,0.00,CLR,,0.00,844.0,WeatherDisplay:10.37,2013-05-16 17:41:00,
2013-05-16 12:46:00,80.3,43.3,29.94,NNE,29,2.1,7.0,27,0.00,CLR,,0.00,824.0,WeatherDisplay:10.37,2013-05-16 17:46:00,
2013-05-16 12:51:00,80.9,42.8,29.94,NE,41,3.7,8.1,26,0.00,CLR,,0.00,816.0,WeatherDisplay:10.37,2013-05-16 17:51:00,
2013-05-16 12:56:00,80.6,41.5,29.94,East,99,6.0,11.5,25,0.00,CLR,,0.00,849.0,WeatherDisplay:10.37,2013-05-16 17:56:00,
2013-05-16 13:01:00,80.0,41.0,29.94,NE,39,8.1,11.0,25,0.00,CLR,,0.00,847.0,WeatherDisplay:10.37,2013-05-16 18:01:00,
2013-05-16 13:06:00,79.9,41.9,29.94,NE,56,7.6,12.0,26,0.00,CLR,,0.00,918.0,WeatherDisplay:10.37,2013-05-16 18:06:00,
2013-05-16 13:11:00,80.0,42.0,29.94,East,86,2.9,5.0,26,0.00,CLR,,0.00,622.0,WeatherDisplay:10.37,2013-05-16 18:11:00,
2013-05-16 13:16:00,80.0,42.0,29.94,ENE,63,5.2,10.0,26,0.00,CLR,,0.00,668.0,WeatherDisplay:10.37,2013-05-16 18:16:00,
2013-05-16 13:21:00,80.3,43.3,29.94,WSW,244,3.8,5.0,27,0.00,CLR,,0.00,703.0,WeatherDisplay:10.37,2013-05-16 18:21:00,
2013-05-16 13:26:00,80.8,43.7,29.94,South,190,2.6,7.0,27,0.00,CLR,,0.00,877.0,WeatherDisplay:10.37,2013-05-16 18:26:00,
2013-05-16 13:31:00,80.0,43.0,29.94,SSE,152,2.7,7.0,27,0.00,CLR,,0.00,714.0,WeatherDisplay:10.37,2013-05-16 18:31:00,
2013-05-16 13:36:00,79.9,41.9,29.94,North,355,0.7,5.0,26,0.00,CLR,,0.00,504.0,WeatherDisplay:10.37,2013-05-16 18:36:00,
2013-05-16 13:41:00,79.8,42.8,29.94,ESE,122,1.0,4.0,27,0.00,CLR,,0.00,515.0,WeatherDisplay:10.37,2013-05-16 18:41:00,
2013-05-16 13:46:00,79.9,41.9,29.94,NE,38,6.3,10.4,26,0.00,CLR,,0.00,443.0,WeatherDisplay:10.37,2013-05-16 18:46:00,
2013-05-16 13:51:00,79.4,41.5,29.94,North,5,4.4,6.0,26,0.00,CLR,,0.00,415.0,WeatherDisplay:10.37,2013-05-16 18:51:00,
2013-05-16 13:56:00,79.1,41.3,29.94,ENE,74,4.8,8.1,26,0.00,CLR,,0.00,427.0,WeatherDisplay:10.37,2013-05-16 18:56:00,
2013-05-16 14:01:00,79.2,42.3,29.94,South,187,3.1,5.8,27,0.00,CLR,,0.00,445.0,WeatherDisplay:10.37,2013-05-16 19:01:00,
2013-05-16 14:06:00,79.4,42.5,29.94,NNE,19,0.3,5.8,27,0.00,CLR,,0.00,462.0,WeatherDisplay:10.37,2013-05-16 19:06:00,
2013-05-16 14:11:00,79.9,41.9,29.94,East,88,3.5,5.0,26,0.00,CLR,,0.00,575.0,WeatherDisplay:10.37,2013-05-16 19:11:00,
2013-05-16 14:16:00,80.1,42.1,29.94,NNW,339,1.2,4.0,26,0.00,CLR,,0.00,664.0,WeatherDisplay:10.37,2013-05-16 19:16:00,
2013-05-16 14:21:00,80.5,42.4,29.94,North,351,1.9,4.0,26,0.00,CLR,,0.00,626.0,WeatherDisplay:10.37,2013-05-16 19:21:00,
2013-05-16 14:26:00,80.8,42.7,29.94,SSW,209,3.4,6.0,26,0.00,CLR,,0.00,779.0,WeatherDisplay:10.37,2013-05-16 19:26:00,
2013-05-16 14:31:00,81.0,41.9,29.94,NE,44,6.3,9.2,25,0.00,CLR,,0.00,691.0,WeatherDisplay:10.37,2013-05-16 19:31:00,
2013-05-16 14:36:00,81.0,41.9,29.93,ENE,58,2.2,5.0,25,0.00,CLR,,0.00,824.0,WeatherDisplay:10.37,2013-05-16 19:36:00,
2013-05-16 14:41:00,81.6,42.4,29.93,SSE,155,6.0,13.0,25,0.00,CLR,,0.00,587.0,WeatherDisplay:10.37,2013-05-16 19:41:00,
2013-05-16 14:46:00,81.2,41.0,29.93,NNE,28,6.5,15.0,24,0.00,CLR,,0.00,789.0,WeatherDisplay:10.37,2013-05-16 19:46:00,
2013-05-16 14:51:00,81.0,40.8,29.93,ENE,69,1.6,3.5,24,0.00,CLR,,0.00,629.0,WeatherDisplay:10.37,2013-05-16 19:51:00,
2013-05-16 14:56:00,81.4,41.1,29.93,ENE,63,1.8,5.0,24,0.00,CLR,,0.00,737.0,WeatherDisplay:10.37,2013-05-16 19:56:00,
2013-05-16 15:01:00,81.6,43.4,29.93,ESE,104,0.8,2.3,26,0.00,CLR,,0.00,570.0,WeatherDisplay:10.37,2013-05-16 20:01:00,
2013-05-16 15:06:00,81.9,41.6,29.93,ENE,63,3.3,7.0,24,0.00,CLR,,0.00,673.0,WeatherDisplay:10.37,2013-05-16 20:06:00,
2013-05-16 15:11:00,81.7,42.4,29.93,NE,42,3.1,5.8,25,0.00,CLR,,0.00,591.0,WeatherDisplay:10.37,2013-05-16 20:11:00,
2013-05-16 15:16:00,81.3,41.0,29.93,SSE,155,2.9,6.0,24,0.00,CLR,,0.00,721.0,WeatherDisplay:10.37,2013-05-16 20:16:00,
2013-05-16 15:21:00,81.3,41.0,29.93,South,181,2.4,5.0,24,0.00,CLR,,0.00,800.0,WeatherDisplay:10.37,2013-05-16 20:21:00,
2013-05-16 15:26:00,82.2,40.7,29.93,North,5,1.5,3.5,23,0.00,CLR,,0.00,677.0,WeatherDisplay:10.37,2013-05-16 20:26:00,
2013-05-16 15:31:00,82.4,42.0,29.93,WNW,296,1.4,6.0,24,0.00,CLR,,0.00,780.0,WeatherDisplay:10.37,2013-05-16 20:31:00,
2013-05-16 15:36:00,82.7,41.1,29.93,SSE,149,1.9,3.0,23,0.00,CLR,,0.00,694.0,WeatherDisplay:10.37,2013-05-16 20:36:00,
2013-05-16 15:41:00,82.5,42.1,29.93,SSE,155,5.3,11.5,24,0.00,CLR,,0.00,527.0,WeatherDisplay:10.37,2013-05-16 20:41:00,
2013-05-16 15:46:00,82.0,40.5,29.93,ENE,73,2.1,9.0,23,0.00,CLR,,0.00,680.0,WeatherDisplay:10.37,2013-05-16 20:46:00,
2013-05-16 15:51:00,81.9,40.5,29.93,SSE,151,2.0,4.0,23,0.00,CLR,,0.00,563.0,WeatherDisplay:10.37,2013-05-16 20:51:00,
2013-05-16 15:56:00,82.7,41.1,29.93,ESE,111,1.4,3.5,23,0.00,CLR,,0.00,629.0,WeatherDisplay:10.37,2013-05-16 20:56:00,
2013-05-16 16:01:00,82.6,41.0,29.93,SSE,167,3.5,6.0,23,0.00,CLR,,0.00,608.0,WeatherDisplay:10.37,2013-05-16 21:01:00,
2013-05-16 16:06:00,82.9,40.1,29.93,NE,34,2.0,4.0,22,0.00,CLR,,0.00,538.0,WeatherDisplay:10.37,2013-05-16 21:06:00,
2013-05-16 16:11:00,82.6,41.0,29.92,SSW,213,4.4,7.0,23,0.00,CLR,,0.00,438.0,WeatherDisplay:10.37,2013-05-16 21:11:00,
2013-05-16 16:16:00,82.3,40.8,29.92,SE,135,2.6,4.6,23,0.00,CLR,,0.00,461.0,WeatherDisplay:10.37,2013-05-16 21:16:00,
2013-05-16 16:21:00,81.5,41.2,29.92,SSE,155,1.8,8.1,24,0.00,CLR,,0.00,362.0,WeatherDisplay:10.37,2013-05-16 21:21:00,
2013-05-16 16:26:00,81.4,40.0,29.93,SE,146,2.7,6.9,23,0.00,CLR,,0.00,334.0,WeatherDisplay:10.37,2013-05-16 21:26:00,
2013-05-16 16:31:00,80.7,40.5,29.93,NNE,30,2.7,4.0,24,0.00,CLR,,0.00,334.0,WeatherDisplay:10.37,2013-05-16 21:31:00,
2013-05-16 16:36:00,80.6,40.5,29.92,SSW,207,2.1,5.0,24,0.00,CLR,,0.00,397.0,WeatherDisplay:10.37,2013-05-16 21:36:00,
2013-05-16 16:41:00,80.7,41.6,29.92,South,178,0.7,4.6,25,0.00,CLR,,0.00,378.0,WeatherDisplay:10.37,2013-05-16 21:41:00,
2013-05-16 16:46:00,80.9,40.7,29.93,SSW,201,3.4,6.0,24,0.00,CLR,,0.00,348.0,WeatherDisplay:10.37,2013-05-16 21:46:00,
2013-05-16 16:51:00,80.8,40.6,29.92,ESE,123,2.9,5.0,24,0.00,CLR,,0.00,302.0,WeatherDisplay:10.37,2013-05-16 21:51:00,
2013-05-16 16:56:00,80.4,40.3,29.92,ENE,57,0.6,3.5,24,0.00,CLR,,0.00,279.0,WeatherDisplay:10.37,2013-05-16 21:56:00,
2013-05-16 17:01:00,80.2,40.1,29.92,SE,128,3.6,7.0,24,0.00,CLR,,0.00,301.0,WeatherDisplay:10.37,2013-05-16 22:01:00,
2013-05-16 17:06:00,80.2,41.2,29.92,ENE,65,1.1,3.5,25,0.00,CLR,,0.00,297.0,WeatherDisplay:10.37,2013-05-16 22:06:00,
2013-05-16 17:11:00,80.4,42.4,29.92,ENE,69,2.6,6.0,26,0.00,CLR,,0.00,274.0,WeatherDisplay:10.37,2013-05-16 22:11:00,
2013-05-16 17:16:00,80.1,40.0,29.92,ENE,76,2.5,6.9,24,0.00,CLR,,0.00,229.0,WeatherDisplay:10.37,2013-05-16 22:16:00,
2013-05-16 17:21:00,79.7,39.7,29.92,ENE,74,4.3,9.2,24,0.00,CLR,,0.00,232.0,WeatherDisplay:10.37,2013-05-16 22:21:00,
2013-05-16 17:26:00,79.6,40.7,29.92,NE,54,3.3,7.0,25,0.00,CLR,,0.00,241.0,WeatherDisplay:10.37,2013-05-16 22:26:00,
2013-05-16 17:31:00,79.6,40.7,29.92,ESE,109,3.8,9.2,25,0.00,CLR,,0.00,272.0,WeatherDisplay:10.37,2013-05-16 22:31:00,
2013-05-16 17:36:00,79.5,40.6,29.92,NNE,25,1.4,4.0,25,0.00,CLR,,0.00,325.0,WeatherDisplay:10.37,2013-05-16 22:36:00,
2013-05-16 17:41:00,79.8,40.8,29.91,ENE,57,5.9,8.1,25,0.00,CLR,,0.00,313.0,WeatherDisplay:10.37,2013-05-16 22:41:00,
2013-05-16 17:46:00,79.8,40.8,29.91,ESE,109,3.9,6.9,25,0.00,CLR,,0.00,248.0,WeatherDisplay:10.37,2013-05-16 22:46:00,
2013-05-16 17:51:00,79.6,41.7,29.92,SE,125,2.6,7.0,26,0.00,CLR,,0.00,239.0,WeatherDisplay:10.37,2013-05-16 22:51:00,
2013-05-16 17:56:00,79.5,40.6,29.92,ENE,78,2.7,8.0,25,0.00,CLR,,0.00,255.0,WeatherDisplay:10.37,2013-05-16 22:56:00,
2013-05-16 18:01:00,79.3,40.4,29.92,ENE,63,4.9,9.0,25,0.00,CLR,,0.00,216.0,WeatherDisplay:10.37,2013-05-16 23:01:00,
2013-05-16 18:06:00,79.1,40.2,29.92,NE,37,1.9,3.5,25,0.00,CLR,,0.00,190.0,WeatherDisplay:10.37,2013-05-16 23:06:00,
2013-05-16 18:11:00,79.0,40.2,29.91,NE,40,5.9,9.0,25,0.00,CLR,,0.00,179.0,WeatherDisplay:10.37,2013-05-16 23:11:00,
2013-05-16 18:16:00,78.6,40.8,29.92,NNE,32,3.0,7.0,26,0.00,CLR,,0.00,171.0,WeatherDisplay:10.37,2013-05-16 23:16:00,
2013-05-16 18:21:00,78.3,40.6,29.91,NNE,25,5.6,9.2,26,0.00,CLR,,0.00,163.0,WeatherDisplay:10.37,2013-05-16 23:21:00,
2013-05-16 18:26:00,78.1,40.4,29.91,NNE,28,4.2,9.0,26,0.00,CLR,,0.00,148.0,WeatherDisplay:10.37,2013-05-16 23:26:00,
2013-05-16 18:31:00,78.0,40.3,29.91,NNE,24,4.1,13.8,26,0.00,CLR,,0.00,141.0,WeatherDisplay:10.37,2013-05-16 23:31:00,
2013-05-16 18:36:00,77.8,40.2,29.91,NE,53,4.9,10.4,26,0.00,CLR,,0.00,137.0,WeatherDisplay:10.37,2013-05-16 23:36:00,
2013-05-16 18:41:00,77.6,40.0,29.91,ENE,65,4.1,11.0,26,0.00,CLR,,0.00,135.0,WeatherDisplay:10.37,2013-05-16 23:41:00,
2013-05-16 18:46:00,77.4,39.8,29.91,NE,41,6.6,9.0,26,0.00,CLR,,0.00,123.0,WeatherDisplay:10.37,2013-05-16 23:46:00,
2013-05-16 18:51:00,77.2,39.6,29.91,NE,41,4.5,8.1,26,0.00,CLR,,0.00,114.0,WeatherDisplay:10.37,2013-05-16 23:51:00,
2013-05-16 18:56:00,77.1,39.6,29.91,North,349,6.1,10.4,26,0.00,CLR,,0.00,109.0,WeatherDisplay:10.37,2013-05-16 23:56:00,
2013-05-16 19:01:00,77.0,40.4,29.91,NE,44,2.8,5.0,27,0.00,CLR,,0.00,98.0,WeatherDisplay:10.37,2013-05-17 00:01:00,
2013-05-16 19:06:00,76.7,39.2,29.91,NE,50,6.6,11.5,26,0.00,CLR,,0.00,84.0,WeatherDisplay:10.37,2013-05-17 00:06:00,
2013-05-16 19:11:00,76.5,40.0,29.91,NNE,20,1.9,4.6,27,0.00,CLR,,0.00,81.0,WeatherDisplay:10.37,2013-05-17 00:11:00,
2013-05-16 19:16:00,76.3,39.8,29.91,NNE,20,4.2,8.1,27,0.00,CLR,,0.00,77.0,WeatherDisplay:10.37,2013-05-17 00:16:00,
2013-05-16 19:21:00,76.2,39.8,29.91,NE,53,4.6,10.0,27,0.00,CLR,,0.00,69.0,WeatherDisplay:10.37,2013-05-17 00:21:00,
2013-05-16 19:26:00,76.0,39.6,29.91,ENE,66,4.5,8.1,27,0.00,CLR,,0.00,63.0,WeatherDisplay:10.37,2013-05-17 00:26:00,
2013-05-16 19:31:00,75.8,39.4,29.91,ENE,68,6.0,8.1,27,0.00,CLR,,0.00,60.0,WeatherDisplay:10.37,2013-05-17 00:31:00,
2013-05-16 19:36:00,75.5,39.2,29.91,NNE,25,4.7,10.0,27,0.00,CLR,,0.00,53.0,WeatherDisplay:10.37,2013-05-17 00:36:00,
2013-05-16 19:41:00,75.3,39.0,29.91,NE,50,5.7,9.2,27,0.00,CLR,,0.00,46.0,WeatherDisplay:10.37,2013-05-17 00:41:00,
2013-05-16 19:46:00,75.1,37.9,29.92,NNW,327,1.6,8.1,26,0.00,CLR,,0.00,39.0,WeatherDisplay:10.37,2013-05-17 00:46:00,
2013-05-16 19:51:00,74.7,37.5,29.92,NE,45,1.3,9.2,26,0.00,CLR,,0.00,33.0,WeatherDisplay:10.37,2013-05-17 00:51:00,
2013-05-16 19:56:00,74.3,37.2,29.92,SE,129,5.8,12.0,26,0.00,CLR,,0.00,28.0,WeatherDisplay:10.37,2013-05-17 00:56:00,
2013-05-16 20:01:00,74.0,36.9,29.92,North,5,4.4,8.1,26,0.00,CLR,,0.00,23.0,WeatherDisplay:10.37,2013-05-17 01:01:00,
2013-05-16 20:06:00,73.7,37.6,29.92,NNE,33,5.5,8.1,27,0.00,CLR,,0.00,14.0,WeatherDisplay:10.37,2013-05-17 01:06:00,
2013-05-16 20:11:00,73.4,37.4,29.92,NE,50,6.9,11.5,27,0.00,CLR,,0.00,12.0,WeatherDisplay:10.37,2013-05-17 01:11:00,
2013-05-16 20:16:00,73.2,37.2,29.93,NE,38,1.4,5.0,27,0.00,CLR,,0.00,9.0,WeatherDisplay:10.37,2013-05-17 01:16:00,
2013-05-16 20:21:00,72.9,36.9,29.93,ESE,106,3.7,9.0,27,0.00,CLR,,0.00,5.0,WeatherDisplay:10.37,2013-05-17 01:21:00,
2013-05-16 20:26:00,72.7,37.7,29.93,SE,126,5.5,9.2,28,0.00,CLR,,0.00,5.0,WeatherDisplay:10.37,2013-05-17 01:26:00,
2013-05-16 20:31:00,72.5,37.5,29.93,ESE,113,4.3,8.1,28,0.00,CLR,,0.00,0.0,WeatherDisplay:10.37,2013-05-17 01:31:00,
2013-05-16 20:36:00,72.3,37.4,29.93,NE,34,3.6,8.1,28,0.00,CLR,,0.00,0.0,WeatherDisplay:10.37,2013-05-17 01:36:00,
2013-05-16 20:41:00,72.1,37.2,29.93,ENE,74,4.9,10.0,28,0.00,CLR,,0.00,0.0,WeatherDisplay:10.37,2013-05-17 01:41:00,
2013-05-16 20:46:00,71.9,36.1,29.93,NNE,21,5.1,8.1,27,0.00,CLR,,0.00,0.0,WeatherDisplay:10.37,2013-05-17 01:46:00,
2013-05-16 20:51:00,71.6,34.9,29.93,North,5,4.0,10.4,26,0.00,CLR,,0.00,0.0,WeatherDisplay:10.37,2013-05-17 01:51:00,
2013-05-16 20:56:00,71.5,34.8,29.93,NE,38,5.2,13.8,26,0.00,CLR,,0.00,0.0,WeatherDisplay:10.37,2013-05-17 01:56:00,
2013-05-16 21:01:00,71.2,34.5,29.93,NNW,342,5.4,11.0,26,0.00,CLR,,0.00,0.0,WeatherDisplay:10.37,2013-05-17 02:01:00,
2013-05-16 21:06:00,71.0,35.3,29.93,ESE,105,5.1,10.4,27,0.00,CLR,,0.00,0.0,WeatherDisplay:10.37,2013-05-17 02:06:00,
2013-05-16 21:11:00,70.7,35.1,29.93,WSW,249,3.6,8.1,27,0.00,CLR,,0.00,0.0,WeatherDisplay:10.37,2013-05-17 02:11:00,
2013-05-16 21:16:00,70.5,34.9,29.94,ENE,69,2.9,11.5,27,0.00,CLR,,0.00,0.0,WeatherDisplay:10.37,2013-05-17 02:16:00,
2013-05-16 21:21:00,70.4,34.8,29.94,SSE,159,4.6,12.0,27,0.00,CLR,,0.00,0.0,WeatherDisplay:10.37,2013-05-17 02:21:00,
2013-05-16 21:26:00,70.2,34.6,29.94,West,275,3.0,8.1,27,0.00,CLR,,0.00,0.0,WeatherDisplay:10.37,2013-05-17 02:26:00,
2013-05-16 21:31:00,70.1,34.5,29.94,NE,42,5.7,8.1,27,0.00,CLR,,0.00,0.0,WeatherDisplay:10.37,2013-05-17 02:31:00,
2013-05-16 21:36:00,69.9,34.4,29.94,ENE,78,3.2,7.0,27,0.00,CLR,,0.00,0.0,WeatherDisplay:10.37,2013-05-17 02:36:00,
2013-05-16 21:41:00,69.8,34.3,29.94,ENE,61,4.7,10.4,27,0.00,CLR,,0.00,0.0,WeatherDisplay:10.37,2013-05-17 02:41:00,
2013-05-16 21:46:00,69.6,34.1,29.94,NNE,26,3.0,6.0,27,0.00,CLR,,0.00,0.0,WeatherDisplay:10.37,2013-05-17 02:46:00,
2013-05-16 21:51:00,69.4,34.9,29.94,ESE,119,3.5,10.0,28,0.00,CLR,,0.00,0.0,WeatherDisplay:10.37,2013-05-17 02:51:00,
2013-05-16 21:56:00,69.3,34.8,29.94,North,5,2.1,6.9,28,0.00,CLR,,0.00,0.0,WeatherDisplay:10.37,2013-05-17 02:56:00,
2013-05-16 22:01:00,69.1,34.6,29.95,North,355,3.2,6.9,28,0.00,CLR,,0.00,0.0,WeatherDisplay:10.37,2013-05-17 03:01:00,
2013-05-16 22:06:00,69.0,35.4,29.95,ENE,71,2.5,5.0,29,0.00,CLR,,0.00,0.0,WeatherDisplay:10.37,2013-05-17 03:06:00,
2013-05-16 22:11:00,69.0,35.4,29.95,East,86,3.9,8.1,29,0.00,FEW,,0.00,0.0,WeatherDisplay:10.37,2013-05-17 03:11:00,
2013-05-16 22:16:00,68.9,35.3,29.95,ENE,75,1.6,5.0,29,0.00,FEW,,0.00,0.0,WeatherDisplay:10.37,2013-05-17 03:16:00,
2013-05-16 22:21:00,68.8,35.2,29.95,SW,233,2.5,6.0,29,0.00,FEW,,0.00,0.0,WeatherDisplay:10.37,2013-05-17 03:21:00,
2013-05-16 22:26:00,68.8,35.2,29.94,NE,46,3.1,9.2,29,0.00,FEW,,0.00,0.0,WeatherDisplay:10.37,2013-05-17 03:26:00,
2013-05-16 22:31:00,68.8,35.2,29.94,East,82,3.0,11.5,29,0.00,FEW,,0.00,0.0,WeatherDisplay:10.37,2013-05-17 03:31:00,
2013-05-16 22:36:00,68.7,36.0,29.94,East,95,2.6,6.0,30,0.00,FEW,,0.00,0.0,WeatherDisplay:10.37,2013-05-17 03:36:00,
2013-05-16 22:41:00,68.5,35.8,29.94,ENE,78,3.6,8.1,30,0.00,FEW,,0.00,0.0,WeatherDisplay:10.37,2013-05-17 03:41:00,
2013-05-16 22:46:00,68.5,35.8,29.94,NNE,22,1.7,5.0,30,0.00,FEW,,0.00,0.0,WeatherDisplay:10.37,2013-05-17 03:46:00,
2013-05-16 22:51:00,68.4,35.7,29.94,South,188,3.1,7.0,30,0.00,FEW,,0.00,0.0,WeatherDisplay:10.37,2013-05-17 03:51:00,
2013-05-16 22:56:00,68.3,35.6,29.94,East,92,3.3,10.0,30,0.00,FEW,,0.00,0.0,WeatherDisplay:10.37,2013-05-17 03:56:00,
2013-05-16 23:01:00,68.3,35.6,29.94,NNW,348,2.7,10.4,30,0.00,FEW,,0.00,0.0,WeatherDisplay:10.37,2013-05-17 04:01:00,
2013-05-16 23:02:00,68.3,36.5,29.94,SSW,200,3.2,7.0,31,0.00,FEW,,0.00,0.0,WeatherDisplay:10.37,2013-05-17 04:02:00,
2013-05-16 23:03:00,68.3,36.5,29.94,NE,53,1.8,4.0,31,0.00,FEW,,0.00,0.0,WeatherDisplay:10.37,2013-05-17 04:03:00,
2013-05-16 23:04:00,68.2,36.4,29.94,SSE,162,3.6,9.2,31,0.00,FEW,,0.00,0.0,WeatherDisplay:10.37,2013-05-17 04:04:00,
2013-05-16 23:09:00,68.1,36.3,29.94,NE,43,1.9,4.0,31,0.00,OVC,,0.00,0.0,WeatherDisplay:10.37,2013-05-17 04:09:00,
2013-05-16 23:12:00,68.1,36.3,29.94,SE,138,2.1,6.0,31,0.00,OVC,,0.00,0.0,WeatherDisplay:10.37,2013-05-17 04:12:00,
2013-05-16 23:17:00,67.9,36.1,29.95,SE,128,3.0,6.0,31,0.00,OVC,,0.00,0.0,WeatherDisplay:10.37,2013-05-17 04:17:00,
2013-05-16 23:22:00,67.9,36.1,29.95,SSE,162,1.6,5.0,31,0.00,OVC,,0.00,0.0,WeatherDisplay:10.37,2013-05-17 04:22:00,
2013-05-16 23:27:00,67.9,36.1,29.95,ENE,72,3.0,9.2,31,0.00,OVC,,0.00,0.0,WeatherDisplay:10.37,2013-05-17 04:27:00,
2013-05-16 23:32:00,67.9,36.1,29.94,East,95,3.3,5.0,31,0.00,OVC,,0.00,0.0,WeatherDisplay:10.37,2013-05-17 04:32:00,
2013-05-16 23:37:00,67.8,35.2,29.94,NE,51,0.7,5.8,30,0.00,OVC,,0.00,0.0,WeatherDisplay:10.37,2013-05-17 04:37:00,
2013-05-16 23:42:00,67.7,35.1,29.94,WNW,294,3.4,11.5,30,0.00,OVC,,0.00,0.0,WeatherDisplay:10.37,2013-05-17 04:42:00,
2013-05-16 23:47:00,67.7,35.1,29.94,SE,130,1.3,6.0,30,0.00,OVC,,0.00,0.0,WeatherDisplay:10.37,2013-05-17 04:47:00,
2013-05-16 23:52:00,67.7,34.3,29.94,ENE,74,3.0,8.1,29,0.00,OVC,,0.00,0.0,WeatherDisplay:10.37,2013-05-17 04:52:00,
2013-05-16 23:57:00,67.6,34.2,29.94,NE,55,2.4,8.0,29,0.00,OVC,,0.00,0.0,WeatherDisplay:10.37,2013-05-17 04:57:00,